Terminal Aerodrome Forecast
Issued by NWS Melbourne, FL

Home | Current Version | Previous Version | Text Only | Print | Product List | Glossary On
Versions: 1 2 3 4 5 6 7 8 9 10 11 12 13 14 15 16 17
000
FTUS42 KMLB 230547
TAFDAB
TAF
KDAB 230547Z 2306/2406 15005KT P6SM FEW022 OVC250
     FM231400 16008KT P6SM SCT020 OVC200
     FM231800 17009KT P6SM VCSH BKN040 OVC200
      TEMPO 2319/2322 3SM SHRA BKN030
     FM232200 22006KT P6SM VCSH SCT040 BKN080=

USA.gov is the U.S. government's official web portal to all federal, state and local government web resources and services.